sensor_id;sensor_type;location;lat;lon;timestamp;pressure;altitude;pressure_sealevel;temperature;humidity
28626;BME280;18905;42.668;23.364;2023-03-01T00:01:30;95602.19;;;6.31;100.00
28626;BME280;18905;42.668;23.364;2023-03-01T00:03:56;95586.84;;;6.37;100.00
28626;BME280;18905;42.668;23.364;2023-03-01T00:06:22;95582.06;;;6.29;100.00
28626;BME280;18905;42.668;23.364;2023-03-01T00:08:48;95592.69;;;6.49;100.00
28626;BME280;18905;42.668;23.364;2023-03-01T00:11:27;95596.44;;;6.48;100.00
28626;BME280;18905;42.668;23.364;2023-03-01T00:13:56;95594.94;;;6.32;100.00
28626;BME280;18905;42.668;23.364;2023-03-01T00:16:28;95593.38;;;6.26;100.00
28626;BME280;18905;42.668;23.364;2023-03-01T00:18:55;95567.09;;;6.23;100.00
28626;BME280;18905;42.668;23.364;2023-03-01T00:21:21;95568.97;;;6.27;100.00
28626;BME280;18905;42.668;23.364;2023-03-01T00:23:47;95563.28;;;6.29;100.00
28626;BME280;18905;42.668;23.364;2023-03-01T00:26:15;95579.88;;;6.36;100.00
28626;BME280;18905;42.668;23.364;2023-03-01T00:28:41;95542.47;;;6.21;100.00
28626;BME280;18905;42.668;23.364;2023-03-01T00:31:10;95566.31;;;6.22;100.00
28626;BME280;18905;42.668;23.364;2023-03-01T00:33:36;95524.13;;;5.99;100.00
28626;BME280;18905;42.668;23.364;2023-03-01T00:36:02;95569.28;;;6.21;100.00
28626;BME280;18905;42.668;23.364;2023-03-01T00:38:28;95563.91;;;6.21;100.00
28626;BME280;18905;42.668;23.364;2023-03-01T00:40:54;95520.66;;;5.94;100.00
28626;BME280;18905;42.668;23.364;2023-03-01T00:43:19;95521.13;;;6.01;100.00
28626;BME280;18905;42.668;23.364;2023-03-01T00:45:45;95548.44;;;6.08;100.00
28626;BME280;18905;42.668;23.364;2023-03-01T00:48:10;95525.56;;;5.82;100.00
28626;BME280;18905;42.668;23.364;2023-03-01T00:50:36;95555.44;;;6.04;100.00
28626;BME280;18905;42.668;23.364;2023-03-01T00:53:01;95547.69;;;5.97;100.00
28626;BME280;18905;42.668;23.364;2023-03-01T00:55:27;95540.03;;;5.81;100.00
28626;BME280;18905;42.668;23.364;2023-03-01T00:57:52;95542.88;;;5.94;100.00
28626;BME280;18905;42.668;23.364;2023-03-01T01:00:18;95546.41;;;5.90;100.00
28626;BME280;18905;42.668;23.364;2023-03-01T01:02:44;95529.56;;;5.79;100.00
28626;BME280;18905;42.668;23.364;2023-03-01T01:05:11;95538.31;;;6.00;100.00
28626;BME280;18905;42.668;23.364;2023-03-01T01:07:36;95551.97;;;5.98;100.00
28626;BME280;18905;42.668;23.364;2023-03-01T01:10:02;95551.72;;;6.00;100.00
28626;BME280;18905;42.668;23.364;2023-03-01T01:12:27;95534.91;;;5.79;100.00
28626;BME280;18905;42.668;23.364;2023-03-01T01:14:53;95521.28;;;5.76;100.00
28626;BME280;18905;42.668;23.364;2023-03-01T01:17:18;95542.44;;;5.82;100.00
28626;BME280;18905;42.668;23.364;2023-03-01T01:19:44;95506.91;;;5.57;100.00
28626;BME280;18905;42.668;23.364;2023-03-01T01:22:09;95496.19;;;5.57;100.00
28626;BME280;18905;42.668;23.364;2023-03-01T01:24:35;95532.97;;;5.95;100.00
28626;BME280;18905;42.668;23.364;2023-03-01T01:27:00;95541.88;;;5.85;100.00
28626;BME280;18905;42.668;23.364;2023-03-01T01:29:26;95550.69;;;5.91;100.00
28626;BME280;18905;42.668;23.364;2023-03-01T01:31:51;95559.56;;;5.86;100.00
28626;BME280;18905;42.668;23.364;2023-03-01T01:34:19;95553.06;;;5.97;100.00
28626;BME280;18905;42.668;23.364;2023-03-01T01:36:48;95542.13;;;5.89;100.00
28626;BME280;18905;42.668;23.364;2023-03-01T01:39:14;95545.28;;;5.96;100.00
28626;BME280;18905;42.668;23.364;2023-03-01T01:41:41;95559.44;;;6.06;100.00
28626;BME280;18905;42.668;23.364;2023-03-01T01:44:12;95567.25;;;6.03;100.00
28626;BME280;18905;42.668;23.364;2023-03-01T01:46:44;95522.31;;;5.80;100.00
28626;BME280;18905;42.668;23.364;2023-03-01T01:49:32;95546.34;;;6.00;100.00
28626;BME280;18905;42.668;23.364;2023-03-01T01:52:09;95557.84;;;6.05;100.00
28626;BME280;18905;42.668;23.364;2023-03-01T01:55:24;95559.72;;;6.05;100.00
28626;BME280;18905;42.668;23.364;2023-03-01T01:57:29;95560.25;;;6.07;100.00
28626;BME280;18905;42.668;23.364;2023-03-01T02:00:00;95553.59;;;5.99;100.00
28626;BME280;18905;42.668;23.364;2023-03-01T02:02:27;95550.59;;;6.06;100.00
28626;BME280;18905;42.668;23.364;2023-03-01T02:05:01;95534.31;;;5.97;100.00
28626;BME280;18905;42.668;23.364;2023-03-01T02:07:29;95539.34;;;6.04;100.00
28626;BME280;18905;42.668;23.364;2023-03-01T02:09:55;95498.75;;;5.77;100.00
28626;BME280;18905;42.668;23.364;2023-03-01T02:12:23;95534.50;;;6.11;100.00
28626;BME280;18905;42.668;23.364;2023-03-01T02:14:50;95515.03;;;5.95;100.00
28626;BME280;18905;42.668;23.364;2023-03-01T02:17:17;95519.50;;;6.05;100.00
28626;BME280;18905;42.668;23.364;2023-03-01T02:22:31;95536.13;;;6.07;100.00
28626;BME280;18905;42.668;23.364;2023-03-01T02:25:01;95530.47;;;6.13;100.00
28626;BME280;18905;42.668;23.364;2023-03-01T02:27:38;95529.75;;;5.98;100.00
28626;BME280;18905;42.668;23.364;2023-03-01T02:30:07;95531.06;;;6.00;100.00
28626;BME280;18905;42.668;23.364;2023-03-01T02:32:33;95529.78;;;5.93;100.00
28626;BME280;18905;42.668;23.364;2023-03-01T02:34:59;95536.72;;;5.99;100.00
28626;BME280;18905;42.668;23.364;2023-03-01T02:37:26;95539.38;;;5.99;100.00
28626;BME280;18905;42.668;23.364;2023-03-01T02:39:59;95543.09;;;6.08;100.00
28626;BME280;18905;42.668;23.364;2023-03-01T02:42:32;95546.94;;;5.87;100.00
28626;BME280;18905;42.668;23.364;2023-03-01T02:44:58;95544.25;;;5.92;100.00
28626;BME280;18905;42.668;23.364;2023-03-01T02:47:24;95537.34;;;5.81;100.00
28626;BME280;18905;42.668;23.364;2023-03-01T02:49:49;95537.88;;;5.78;100.00
28626;BME280;18905;42.668;23.364;2023-03-01T02:52:47;95518.91;;;5.69;100.00
28626;BME280;18905;42.668;23.364;2023-03-01T02:55:18;95546.44;;;5.80;100.00
28626;BME280;18905;42.668;23.364;2023-03-01T02:57:45;95539.00;;;5.67;100.00
28626;BME280;18905;42.668;23.364;2023-03-01T03:00:19;95458.53;;;5.38;100.00
28626;BME280;18905;42.668;23.364;2023-03-01T03:02:48;95540.25;;;5.89;100.00
28626;BME280;18905;42.668;23.364;2023-03-01T03:05:19;95542.06;;;5.99;100.00
28626;BME280;18905;42.668;23.364;2023-03-01T03:07:47;95538.88;;;5.92;100.00
28626;BME280;18905;42.668;23.364;2023-03-01T03:10:21;95530.63;;;5.78;100.00
28626;BME280;18905;42.668;23.364;2023-03-01T03:12:52;95534.66;;;5.81;100.00
28626;BME280;18905;42.668;23.364;2023-03-01T03:15:17;95530.91;;;5.77;100.00
28626;BME280;18905;42.668;23.364;2023-03-01T03:17:43;95521.78;;;5.78;100.00
28626;BME280;18905;42.668;23.364;2023-03-01T03:20:11;95509.75;;;5.75;100.00
28626;BME280;18905;42.668;23.364;2023-03-01T03:22:40;95538.41;;;5.85;100.00
28626;BME280;18905;42.668;23.364;2023-03-01T03:25:07;95518.78;;;5.89;100.00
28626;BME280;18905;42.668;23.364;2023-03-01T03:27:39;95544.78;;;5.94;100.00
28626;BME280;18905;42.668;23.364;2023-03-01T03:30:08;95545.91;;;5.78;100.00
28626;BME280;18905;42.668;23.364;2023-03-01T03:32:37;95522.63;;;5.73;100.00
28626;BME280;18905;42.668;23.364;2023-03-01T03:35:06;95529.38;;;5.66;100.00
28626;BME280;18905;42.668;23.364;2023-03-01T03:37:41;95550.47;;;5.82;100.00
28626;BME280;18905;42.668;23.364;2023-03-01T03:40:25;95545.56;;;5.94;100.00
28626;BME280;18905;42.668;23.364;2023-03-01T03:42:51;95546.38;;;5.95;100.00
28626;BME280;18905;42.668;23.364;2023-03-01T03:45:17;95546.72;;;5.83;100.00
28626;BME280;18905;42.668;23.364;2023-03-01T03:47:43;95560.88;;;5.94;100.00
28626;BME280;18905;42.668;23.364;2023-03-01T03:50:13;95556.03;;;5.91;100.00
28626;BME280;18905;42.668;23.364;2023-03-01T03:52:39;95556.59;;;5.93;100.00
28626;BME280;18905;42.668;23.364;2023-03-01T03:55:06;95566.00;;;5.90;100.00
28626;BME280;18905;42.668;23.364;2023-03-01T03:57:42;95546.69;;;5.88;100.00
28626;BME280;18905;42.668;23.364;2023-03-01T04:00:11;95552.13;;;5.68;100.00
28626;BME280;18905;42.668;23.364;2023-03-01T04:02:42;95522.53;;;5.40;100.00
28626;BME280;18905;42.668;23.364;2023-03-01T04:05:09;95548.69;;;5.58;100.00
28626;BME280;18905;42.668;23.364;2023-03-01T04:07:36;95542.22;;;5.64;100.00
28626;BME280;18905;42.668;23.364;2023-03-01T04:10:06;95543.00;;;5.69;100.00
28626;BME280;18905;42.668;23.364;2023-03-01T04:12:33;95567.91;;;5.75;100.00
28626;BME280;18905;42.668;23.364;2023-03-01T04:15:00;95556.16;;;5.66;100.00
28626;BME280;18905;42.668;23.364;2023-03-01T04:17:25;95570.03;;;5.78;100.00
28626;BME280;18905;42.668;23.364;2023-03-01T04:19:51;95563.34;;;5.75;100.00
28626;BME280;18905;42.668;23.364;2023-03-01T04:22:16;95567.63;;;5.76;100.00
28626;BME280;18905;42.668;23.364;2023-03-01T04:24:44;95545.22;;;5.52;100.00
28626;BME280;18905;42.668;23.364;2023-03-01T04:27:10;95538.88;;;5.38;100.00
28626;BME280;18905;42.668;23.364;2023-03-01T04:29:36;95553.03;;;5.44;100.00
28626;BME280;18905;42.668;23.364;2023-03-01T04:32:01;95553.28;;;5.47;100.00
28626;BME280;18905;42.668;23.364;2023-03-01T04:34:28;95557.81;;;5.57;100.00
28626;BME280;18905;42.668;23.364;2023-03-01T04:36:54;95567.94;;;5.65;100.00
28626;BME280;18905;42.668;23.364;2023-03-01T04:39:19;95561.56;;;5.56;100.00
28626;BME280;18905;42.668;23.364;2023-03-01T04:41:45;95551.91;;;5.55;100.00
28626;BME280;18905;42.668;23.364;2023-03-01T04:44:11;95556.16;;;5.66;100.00
28626;BME280;18905;42.668;23.364;2023-03-01T04:46:36;95530.22;;;5.56;100.00
28626;BME280;18905;42.668;23.364;2023-03-01T04:49:02;95564.44;;;8.26;100.00
28626;BME280;18905;42.668;23.364;2023-03-01T04:51:28;95574.22;;;9.18;100.00
28626;BME280;18905;42.668;23.364;2023-03-01T04:53:54;95545.19;;;8.51;100.00
28626;BME280;18905;42.668;23.364;2023-03-01T04:56:20;95509.06;;;7.17;100.00
28626;BME280;18905;42.668;23.364;2023-03-01T04:58:48;95537.78;;;6.65;100.00
28626;BME280;18905;42.668;23.364;2023-03-01T05:01:17;95553.84;;;6.41;100.00
28626;BME280;18905;42.668;23.364;2023-03-01T05:03:46;95551.13;;;6.46;100.00
28626;BME280;18905;42.668;23.364;2023-03-01T05:06:12;95530.03;;;6.35;100.00
28626;BME280;18905;42.668;23.364;2023-03-01T05:08:38;95563.72;;;6.46;100.00
28626;BME280;18905;42.668;23.364;2023-03-01T05:11:06;95558.16;;;6.37;100.00
28626;BME280;18905;42.668;23.364;2023-03-01T05:13:34;95545.56;;;6.66;100.00
28626;BME280;18905;42.668;23.364;2023-03-01T05:16:01;95551.56;;;6.53;100.00
28626;BME280;18905;42.668;23.364;2023-03-01T05:18:29;95542.78;;;6.48;100.00
28626;BME280;18905;42.668;23.364;2023-03-01T05:21:10;95566.47;;;7.50;100.00
28626;BME280;18905;42.668;23.364;2023-03-01T05:23:45;95539.53;;;7.08;100.00
28626;BME280;18905;42.668;23.364;2023-03-01T05:26:15;95525.31;;;6.84;100.00
28626;BME280;18905;42.668;23.364;2023-03-01T05:28:40;95542.34;;;6.98;100.00
28626;BME280;18905;42.668;23.364;2023-03-01T05:31:06;95550.06;;;6.76;100.00
28626;BME280;18905;42.668;23.364;2023-03-01T05:33:36;95519.25;;;6.40;100.00
28626;BME280;18905;42.668;23.364;2023-03-01T05:36:02;95544.66;;;6.47;100.00
28626;BME280;18905;42.668;23.364;2023-03-01T05:38:27;95549.06;;;6.33;100.00
28626;BME280;18905;42.668;23.364;2023-03-01T05:40:53;95547.47;;;5.94;100.00
28626;BME280;18905;42.668;23.364;2023-03-01T05:43:18;95523.19;;;5.65;100.00
28626;BME280;18905;42.668;23.364;2023-03-01T05:45:44;95558.25;;;5.79;100.00
28626;BME280;18905;42.668;23.364;2023-03-01T05:48:11;95540.09;;;5.66;100.00
28626;BME280;18905;42.668;23.364;2023-03-01T05:50:42;95562.28;;;5.76;100.00
28626;BME280;18905;42.668;23.364;2023-03-01T05:53:18;95559.84;;;5.80;100.00
28626;BME280;18905;42.668;23.364;2023-03-01T05:55:46;95561.53;;;5.66;100.00
28626;BME280;18905;42.668;23.364;2023-03-01T05:58:21;95582.97;;;5.66;100.00
28626;BME280;18905;42.668;23.364;2023-03-01T06:00:48;95583.47;;;5.68;100.00
28626;BME280;18905;42.668;23.364;2023-03-01T06:03:15;95582.13;;;5.65;100.00
28626;BME280;18905;42.668;23.364;2023-03-01T06:05:41;95591.59;;;5.48;100.00
28626;BME280;18905;42.668;23.364;2023-03-01T06:08:09;95590.31;;;5.35;100.00
28626;BME280;18905;42.668;23.364;2023-03-01T06:10:35;95575.84;;;5.31;100.00
28626;BME280;18905;42.668;23.364;2023-03-01T06:13:00;95580.94;;;5.28;100.00
28626;BME280;18905;42.668;23.364;2023-03-01T06:15:26;95555.50;;;5.25;100.00
28626;BME280;18905;42.668;23.364;2023-03-01T06:17:53;95609.25;;;5.49;100.00
28626;BME280;18905;42.668;23.364;2023-03-01T06:20:23;95609.50;;;5.52;100.00
28626;BME280;18905;42.668;23.364;2023-03-01T06:22:49;95613.03;;;5.48;100.00
28626;BME280;18905;42.668;23.364;2023-03-01T06:25:20;95599.66;;;5.38;100.00
28626;BME280;18905;42.668;23.364;2023-03-01T06:27:47;95602.53;;;5.56;100.00
28626;BME280;18905;42.668;23.364;2023-03-01T06:30:15;95577.72;;;5.31;100.00
28626;BME280;18905;42.668;23.364;2023-03-01T06:32:41;95606.00;;;5.62;100.00
28626;BME280;18905;42.668;23.364;2023-03-01T06:35:08;95607.56;;;5.73;100.00
28626;BME280;18905;42.668;23.364;2023-03-01T06:37:34;95582.50;;;5.44;100.00
28626;BME280;18905;42.668;23.364;2023-03-01T06:40:00;95605.44;;;5.70;100.00
28626;BME280;18905;42.668;23.364;2023-03-01T06:42:29;95596.66;;;5.59;100.00
28626;BME280;18905;42.668;23.364;2023-03-01T06:44:55;95590.19;;;5.65;100.00
28626;BME280;18905;42.668;23.364;2023-03-01T06:47:20;95574.63;;;5.72;100.00
28626;BME280;18905;42.668;23.364;2023-03-01T06:49:46;95578.09;;;5.73;100.00
28626;BME280;18905;42.668;23.364;2023-03-01T06:52:11;95590.94;;;5.76;100.00
28626;BME280;18905;42.668;23.364;2023-03-01T06:54:36;95601.06;;;5.94;100.00
28626;BME280;18905;42.668;23.364;2023-03-01T06:57:02;95554.50;;;5.75;100.00
28626;BME280;18905;42.668;23.364;2023-03-01T06:59:27;95609.38;;;5.92;100.00
28626;BME280;18905;42.668;23.364;2023-03-01T07:01:53;95567.63;;;5.71;100.00
28626;BME280;18905;42.668;23.364;2023-03-01T07:04:18;95577.31;;;5.72;100.00
28626;BME280;18905;42.668;23.364;2023-03-01T07:06:43;95585.22;;;5.97;100.00
28626;BME280;18905;42.668;23.364;2023-03-01T07:09:09;95553.22;;;5.67;100.00
28626;BME280;18905;42.668;23.364;2023-03-01T07:12:02;95611.72;;;6.04;100.00
28626;BME280;18905;42.668;23.364;2023-03-01T07:14:48;95612.25;;;6.11;100.00
28626;BME280;18905;42.668;23.364;2023-03-01T07:17:13;95607.38;;;6.18;100.00
28626;BME280;18905;42.668;23.364;2023-03-01T07:19:38;95599.09;;;6.09;100.00
28626;BME280;18905;42.668;23.364;2023-03-01T07:22:06;95573.66;;;6.07;100.00
28626;BME280;18905;42.668;23.364;2023-03-01T07:24:33;95606.53;;;6.17;100.00
28626;BME280;18905;42.668;23.364;2023-03-01T07:26:59;95605.75;;;6.17;100.00
28626;BME280;18905;42.668;23.364;2023-03-01T07:29:24;95600.94;;;6.14;100.00
28626;BME280;18905;42.668;23.364;2023-03-01T07:31:49;95574.38;;;6.17;100.00
28626;BME280;18905;42.668;23.364;2023-03-01T07:34:15;95533.50;;;5.97;100.00
28626;BME280;18905;42.668;23.364;2023-03-01T07:36:40;95584.44;;;6.35;100.00
28626;BME280;18905;42.668;23.364;2023-03-01T07:39:09;95579.69;;;6.27;100.00
28626;BME280;18905;42.668;23.364;2023-03-01T07:41:34;95565.41;;;6.37;100.00
28626;BME280;18905;42.668;23.364;2023-03-01T07:44:00;95590.91;;;6.34;100.00
28626;BME280;18905;42.668;23.364;2023-03-01T07:46:25;95577.75;;;6.33;100.00
28626;BME280;18905;42.668;23.364;2023-03-01T07:48:51;95585.22;;;6.41;100.00
28626;BME280;18905;42.668;23.364;2023-03-01T07:51:16;95539.56;;;6.46;100.00
28626;BME280;18905;42.668;23.364;2023-03-01T07:53:41;95573.63;;;6.79;100.00
28626;BME280;18905;42.668;23.364;2023-03-01T07:56:09;95569.25;;;6.88;100.00
28626;BME280;18905;42.668;23.364;2023-03-01T07:58:39;95553.63;;;6.95;100.00
28626;BME280;18905;42.668;23.364;2023-03-01T08:01:08;95549.72;;;6.82;100.00
28626;BME280;18905;42.668;23.364;2023-03-01T08:03:34;95560.09;;;6.94;100.00
28626;BME280;18905;42.668;23.364;2023-03-01T08:06:00;95547.72;;;6.93;100.00
28626;BME280;18905;42.668;23.364;2023-03-01T08:08:26;95575.16;;;7.18;100.00
28626;BME280;18905;42.668;23.364;2023-03-01T08:10:52;95551.59;;;6.82;100.00
28626;BME280;18905;42.668;23.364;2023-03-01T08:13:17;95546.59;;;6.70;100.00
28626;BME280;18905;42.668;23.364;2023-03-01T08:15:48;95572.47;;;6.90;100.00
28626;BME280;18905;42.668;23.364;2023-03-01T08:18:14;95565.41;;;6.99;100.00
28626;BME280;18905;42.668;23.364;2023-03-01T08:20:40;95558.13;;;6.99;100.00
28626;BME280;18905;42.668;23.364;2023-03-01T08:23:05;95550.06;;;6.76;100.00
28626;BME280;18905;42.668;23.364;2023-03-01T08:25:31;95514.78;;;6.59;100.00
28626;BME280;18905;42.668;23.364;2023-03-01T08:27:56;95546.78;;;6.84;100.00
28626;BME280;18905;42.668;23.364;2023-03-01T08:30:21;95521.19;;;6.63;100.00
28626;BME280;18905;42.668;23.364;2023-03-01T08:32:49;95550.78;;;6.86;100.00
28626;BME280;18905;42.668;23.364;2023-03-01T08:35:15;95546.34;;;7.00;100.00
28626;BME280;18905;42.668;23.364;2023-03-01T08:37:41;95576.97;;;7.23;100.00
28626;BME280;18905;42.668;23.364;2023-03-01T08:40:06;95568.03;;;7.32;100.00
28626;BME280;18905;42.668;23.364;2023-03-01T08:42:32;95561.38;;;7.48;100.00
28626;BME280;18905;42.668;23.364;2023-03-01T08:44:58;95524.28;;;7.27;100.00
28626;BME280;18905;42.668;23.364;2023-03-01T08:47:23;95521.03;;;7.06;100.00
28626;BME280;18905;42.668;23.364;2023-03-01T08:49:50;95531.72;;;7.35;100.00
28626;BME280;18905;42.668;23.364;2023-03-01T08:52:15;95558.91;;;7.52;100.00
28626;BME280;18905;42.668;23.364;2023-03-01T08:54:41;95535.59;;;7.47;100.00
28626;BME280;18905;42.668;23.364;2023-03-01T08:57:06;95524.22;;;7.08;100.00
28626;BME280;18905;42.668;23.364;2023-03-01T08:59:32;95512.31;;;6.91;100.00
28626;BME280;18905;42.668;23.364;2023-03-01T09:02:02;95567.13;;;7.13;100.00
28626;BME280;18905;42.668;23.364;2023-03-01T09:04:28;95544.84;;;7.13;100.00
28626;BME280;18905;42.668;23.364;2023-03-01T09:06:53;95557.13;;;7.19;100.00
28626;BME280;18905;42.668;23.364;2023-03-01T09:09:18;95505.00;;;6.73;100.00
28626;BME280;18905;42.668;23.364;2023-03-01T09:11:45;95544.03;;;7.12;100.00
28626;BME280;18905;42.668;23.364;2023-03-01T09:14:14;95542.66;;;7.15;100.00
28626;BME280;18905;42.668;23.364;2023-03-01T09:16:40;95536.53;;;6.86;100.00
28626;BME280;18905;42.668;23.364;2023-03-01T09:19:05;95509.81;;;6.76;100.00
28626;BME280;18905;42.668;23.364;2023-03-01T09:21:31;95557.84;;;7.01;100.00
28626;BME280;18905;42.668;23.364;2023-03-01T09:23:57;95534.09;;;6.89;100.00
28626;BME280;18905;42.668;23.364;2023-03-01T09:26:24;95553.47;;;7.10;100.00
28626;BME280;18905;42.668;23.364;2023-03-01T09:28:51;95517.44;;;7.16;100.00
28626;BME280;18905;42.668;23.364;2023-03-01T09:31:19;95501.88;;;6.89;100.00
28626;BME280;18905;42.668;23.364;2023-03-01T09:33:47;95552.34;;;7.16;100.00
28626;BME280;18905;42.668;23.364;2023-03-01T09:36:15;95561.03;;;7.08;100.00
28626;BME280;18905;42.668;23.364;2023-03-01T09:38:40;95537.63;;;6.85;100.00
28626;BME280;18905;42.668;23.364;2023-03-01T09:41:11;95541.63;;;7.11;100.00
28626;BME280;18905;42.668;23.364;2023-03-01T09:44:00;95540.47;;;7.22;100.00
28626;BME280;18905;42.668;23.364;2023-03-01T09:46:33;95539.53;;;7.08;100.00
28626;BME280;18905;42.668;23.364;2023-03-01T09:49:05;95495.47;;;6.85;100.00
28626;BME280;18905;42.668;23.364;2023-03-01T09:51:35;95542.56;;;7.01;100.00
28626;BME280;18905;42.668;23.364;2023-03-01T09:54:05;95536.03;;;7.07;100.00
28626;BME280;18905;42.668;23.364;2023-03-01T09:59:57;95535.25;;;7.30;100.00
28626;BME280;18905;42.668;23.364;2023-03-01T10:02:45;95526.78;;;7.42;100.00
28626;BME280;18905;42.668;23.364;2023-03-01T10:11:20;95518.69;;;7.23;100.00
28626;BME280;18905;42.668;23.364;2023-03-01T10:19:20;95510.31;;;7.25;100.00
28626;BME280;18905;42.668;23.364;2023-03-01T10:21:49;95492.41;;;7.20;100.00
28626;BME280;18905;42.668;23.364;2023-03-01T10:24:17;95507.47;;;7.40;100.00
28626;BME280;18905;42.668;23.364;2023-03-01T10:27:09;95502.88;;;7.64;100.00
28626;BME280;18905;42.668;23.364;2023-03-01T10:29:48;95501.78;;;7.65;100.00
28626;BME280;18905;42.668;23.364;2023-03-01T10:32:18;95509.84;;;7.65;100.00
28626;BME280;18905;42.668;23.364;2023-03-01T10:34:44;95487.97;;;7.71;100.00
28626;BME280;18905;42.668;23.364;2023-03-01T10:37:11;95505.50;;;8.06;100.00
28626;BME280;18905;42.668;23.364;2023-03-01T10:39:37;95491.59;;;8.17;100.00
28626;BME280;18905;42.668;23.364;2023-03-01T10:42:29;95464.66;;;8.04;100.00
28626;BME280;18905;42.668;23.364;2023-03-01T10:44:55;95488.31;;;8.39;100.00
28626;BME280;18905;42.668;23.364;2023-03-01T10:47:26;95486.59;;;8.11;100.00
28626;BME280;18905;42.668;23.364;2023-03-01T10:50:03;95486.31;;;8.31;100.00
28626;BME280;18905;42.668;23.364;2023-03-01T10:52:37;95444.78;;;8.18;100.00
28626;BME280;18905;42.668;23.364;2023-03-01T10:55:04;95482.94;;;8.39;100.00
28626;BME280;18905;42.668;23.364;2023-03-01T10:57:48;95440.41;;;7.72;100.00
28626;BME280;18905;42.668;23.364;2023-03-01T11:00:20;95483.78;;;8.21;100.00
28626;BME280;18905;42.668;23.364;2023-03-01T11:03:02;95440.69;;;8.26;100.00
28626;BME280;18905;42.668;23.364;2023-03-01T11:05:28;95488.03;;;8.72;100.00
28626;BME280;18905;42.668;23.364;2023-03-01T11:07:59;95476.59;;;8.48;100.00
28626;BME280;18905;42.668;23.364;2023-03-01T11:10:28;95312.22;;;7.86;100.00
28626;BME280;18905;42.668;23.364;2023-03-01T11:13:08;95324.56;;;7.87;100.00
28626;BME280;18905;42.668;23.364;2023-03-01T11:15:34;95489.84;;;8.77;100.00
28626;BME280;18905;42.668;23.364;2023-03-01T11:18:00;95490.25;;;8.84;100.00
28626;BME280;18905;42.668;23.364;2023-03-01T11:20:32;95374.41;;;8.30;100.00
28626;BME280;18905;42.668;23.364;2023-03-01T11:25:44;95333.66;;;7.91;100.00
28626;BME280;18905;42.668;23.364;2023-03-01T11:28:17;95326.91;;;7.75;100.00
28626;BME280;18905;42.668;23.364;2023-03-01T11:36:04;95477.34;;;8.35;100.00
28626;BME280;18905;42.668;23.364;2023-03-01T11:38:34;95375.66;;;7.87;100.00
28626;BME280;18905;42.668;23.364;2023-03-01T11:41:12;95481.09;;;8.53;100.00
28626;BME280;18905;42.668;23.364;2023-03-01T11:43:46;95472.22;;;8.52;100.00
28626;BME280;18905;42.668;23.364;2023-03-01T11:48:43;95468.06;;;8.73;100.00
28626;BME280;18905;42.668;23.364;2023-03-01T11:54:26;95447.91;;;8.44;100.00
28626;BME280;18905;42.668;23.364;2023-03-01T11:57:26;95361.03;;;7.93;100.00
28626;BME280;18905;42.668;23.364;2023-03-01T12:00:06;95403.47;;;8.46;100.00
28626;BME280;18905;42.668;23.364;2023-03-01T12:10:28;95293.31;;;7.91;100.00
28626;BME280;18905;42.668;23.364;2023-03-01T12:21:50;95235.94;;;7.82;100.00
28626;BME280;18905;42.668;23.364;2023-03-01T12:24:39;95429.91;;;9.12;100.00
28626;BME280;18905;42.668;23.364;2023-03-01T12:27:51;95267.00;;;7.88;100.00
28626;BME280;18905;42.668;23.364;2023-03-01T12:30:42;95428.03;;;8.99;100.00
28626;BME280;18905;42.668;23.364;2023-03-01T12:39:03;95285.97;;;7.96;100.00
28626;BME280;18905;42.668;23.364;2023-03-01T12:41:44;95403.88;;;8.67;100.00
28626;BME280;18905;42.668;23.364;2023-03-01T12:47:07;95375.84;;;8.41;100.00
28626;BME280;18905;42.668;23.364;2023-03-01T12:49:49;95223.84;;;7.20;100.00
28626;BME280;18905;42.668;23.364;2023-03-01T13:02:52;95257.44;;;7.68;100.00
28626;BME280;18905;42.668;23.364;2023-03-01T13:08:16;95418.03;;;8.99;100.00
28626;BME280;18905;42.668;23.364;2023-03-01T13:10:58;95294.56;;;8.12;100.00
28626;BME280;18905;42.668;23.364;2023-03-01T13:13:27;95252.66;;;7.79;100.00
28626;BME280;18905;42.668;23.364;2023-03-01T13:15:54;95269.59;;;7.79;100.00
28626;BME280;18905;42.668;23.364;2023-03-01T13:20:50;95277.22;;;8.18;100.00
28626;BME280;18905;42.668;23.364;2023-03-01T13:26:09;95427.94;;;9.04;100.00
28626;BME280;18905;42.668;23.364;2023-03-01T13:34:00;95368.97;;;8.48;100.00
28626;BME280;18905;42.668;23.364;2023-03-01T13:44:21;95416.53;;;9.07;100.00
28626;BME280;18905;42.668;23.364;2023-03-01T13:46:53;95415.88;;;9.01;100.00
28626;BME280;18905;42.668;23.364;2023-03-01T13:49:25;95237.53;;;7.69;100.00
28626;BME280;18905;42.668;23.364;2023-03-01T13:51:52;95252.47;;;7.89;100.00
28626;BME280;18905;42.668;23.364;2023-03-01T13:54:30;95267.81;;;7.88;100.00
28626;BME280;18905;42.668;23.364;2023-03-01T13:56:58;95267.28;;;7.73;100.00
28626;BME280;18905;42.668;23.364;2023-03-01T13:59:24;95296.22;;;7.94;100.00
28626;BME280;18905;42.668;23.364;2023-03-01T14:01:59;95258.00;;;7.33;100.00
28626;BME280;18905;42.668;23.364;2023-03-01T14:04:32;95243.75;;;7.51;100.00
28626;BME280;18905;42.668;23.364;2023-03-01T14:07:19;95409.63;;;8.47;100.00
28626;BME280;18905;42.668;23.364;2023-03-01T14:09:50;95409.44;;;8.57;100.00
28626;BME280;18905;42.668;23.364;2023-03-01T14:12:27;95245.53;;;7.56;100.00
28626;BME280;18905;42.668;23.364;2023-03-01T14:15:19;95405.53;;;8.49;100.00
28626;BME280;18905;42.668;23.364;2023-03-01T14:20:49;95235.31;;;7.26;100.00
28626;BME280;18905;42.668;23.364;2023-03-01T14:23:20;95248.47;;;7.09;100.00
28626;BME280;18905;42.668;23.364;2023-03-01T14:25:49;95237.16;;;6.93;100.00
28626;BME280;18905;42.668;23.364;2023-03-01T14:28:31;95249.47;;;7.13;100.00
28626;BME280;18905;42.668;23.364;2023-03-01T14:31:37;95409.31;;;8.16;100.00
28626;BME280;18905;42.668;23.364;2023-03-01T14:34:16;95235.31;;;6.70;100.00